Time;durP1;ratioP1;P1;durP2;ratioP2;P2;SDS_P1;SDS_P2;PMS_P1;PMS_P2;Temp;Humidity;BMP_temperature;BMP_pressure;BME280_temperature;BME280_humidity;BME280_pressure;Samples;Min_cycle;Max_cycle;Signal;HPM_P1;HPM_P2
2021/09/11 00:01:49;;;;;;;6.53;3.00;;;;;;;;;;4958520;28;20066;-75
2021/09/11 00:04:15;;;;;;;4.75;3.05;;;;;;;;;;4958353;28;20448;-75
2021/09/11 00:06:40;;;;;;;4.28;3.60;;;;;;;;;;4957024;29;20035;-75
2021/09/11 00:09:05;;;;;;;4.55;3.00;;;;;;;;;;4957616;28;20051;-75
2021/09/11 00:11:31;;;;;;;8.18;3.38;;;;;;;;;;4958225;28;20035;-75
2021/09/11 00:13:58;;;;;;;10.95;3.72;;;;;;;;;;4958320;28;20031;-75
2021/09/11 00:16:23;;;;;;;8.70;4.28;;;;;;;;;;4958150;28;20066;-75
2021/09/11 00:18:49;;;;;;;7.10;3.85;;;;;;;;;;4958121;28;20069;-75
2021/09/11 00:21:14;;;;;;;9.25;4.30;;;;;;;;;;4957113;29;20049;-75
2021/09/11 00:23:40;;;;;;;6.38;4.28;;;;;;;;;;4958177;29;20039;-75
2021/09/11 00:26:05;;;;;;;8.35;4.25;;;;;;;;;;4956860;29;20054;-75
2021/09/11 00:28:31;;;;;;;10.25;4.10;;;;;;;;;;4958106;28;20082;-75
2021/09/11 00:30:56;;;;;;;8.18;5.00;;;;;;;;;;4957943;28;20073;-75
2021/09/11 00:33:21;;;;;;;7.43;4.72;;;;;;;;;;4956751;29;20139;-75
2021/09/11 00:35:47;;;;;;;5.57;4.40;;;;;;;;;;4956951;28;20106;-75
2021/09/11 00:38:12;;;;;;;14.60;4.68;;;;;;;;;;4957289;28;20042;-75
2021/09/11 00:40:38;;;;;;;17.70;4.45;;;;;;;;;;4956742;28;20483;-75
2021/09/11 00:43:03;;;;;;;8.18;4.43;;;;;;;;;;4957982;28;20035;-75
2021/09/11 00:45:29;;;;;;;8.25;4.32;;;;;;;;;;4957396;28;20035;-75
2021/09/11 00:47:54;;;;;;;33.42;4.63;;;;;;;;;;4955864;28;20054;-75
2021/09/11 00:50:20;;;;;;;4.20;3.80;;;;;;;;;;4957487;28;20047;-75
2021/09/11 00:52:48;;;;;;;8.52;3.90;;;;;;;;;;4957695;28;20046;-75
2021/09/11 00:55:15;;;;;;;7.28;4.03;;;;;;;;;;4957372;28;20038;-75
2021/09/11 00:57:43;;;;;;;18.02;4.07;;;;;;;;;;4957039;28;20039;-75
2021/09/11 01:00:10;;;;;;;23.00;5.03;;;;;;;;;;4956827;28;20130;-75
2021/09/11 01:02:35;;;;;;;5.22;4.25;;;;;;;;;;4955885;28;20047;-75
2021/09/11 01:05:05;;;;;;;10.95;4.75;;;;;;;;;;4956142;28;20039;-75
2021/09/11 01:07:31;;;;;;;37.42;5.30;;;;;;;;;;4957470;28;20063;-75
2021/09/11 01:09:58;;;;;;;10.30;4.93;;;;;;;;;;4957123;28;20043;-75
2021/09/11 01:12:25;;;;;;;28.35;5.18;;;;;;;;;;4955219;28;20564;-75
2021/09/11 01:14:50;;;;;;;44.80;6.13;;;;;;;;;;4957200;28;20035;-75
2021/09/11 01:17:16;;;;;;;39.70;5.13;;;;;;;;;;4957019;28;20050;-75
2021/09/11 01:19:43;;;;;;;26.02;5.65;;;;;;;;;;4957335;28;20095;-75
2021/09/11 01:22:15;;;;;;;11.93;4.72;;;;;;;;;;4956483;28;20059;-75
2021/09/11 01:25:09;;;;;;;14.27;4.72;;;;;;;;;;4957109;28;20396;-75
2021/09/11 01:27:35;;;;;;;9.55;4.80;;;;;;;;;;4956729;28;20054;-75
2021/09/11 01:30:05;;;;;;;12.13;5.13;;;;;;;;;;4956880;28;20043;-75
2021/09/11 01:32:32;;;;;;;5.53;3.97;;;;;;;;;;4955457;29;20079;-75
2021/09/11 01:34:57;;;;;;;4.63;4.22;;;;;;;;;;4956984;28;20043;-75
2021/09/11 01:37:23;;;;;;;5.60;4.45;;;;;;;;;;4956126;28;20035;-75
2021/09/11 01:39:49;;;;;;;3.95;3.50;;;;;;;;;;4956640;28;20500;-75
2021/09/11 01:42:23;;;;;;;6.65;4.05;;;;;;;;;;4956969;28;20051;-75
2021/09/11 01:44:52;;;;;;;9.13;4.25;;;;;;;;;;4956029;28;20041;-75
2021/09/11 01:47:17;;;;;;;3.83;3.35;;;;;;;;;;4956475;28;20131;-75
2021/09/11 01:49:43;;;;;;;7.88;4.18;;;;;;;;;;4956800;28;20074;-75
2021/09/11 01:52:09;;;;;;;12.13;3.90;;;;;;;;;;4955916;28;20035;-75
2021/09/11 01:54:36;;;;;;;12.02;3.92;;;;;;;;;;4956186;28;20047;-75
2021/09/11 01:57:01;;;;;;;6.90;4.35;;;;;;;;;;4956555;28;20476;-75
2021/09/11 01:59:27;;;;;;;4.88;3.92;;;;;;;;;;4955705;28;20039;-75
2021/09/11 02:01:52;;;;;;;5.43;3.95;;;;;;;;;;4956026;28;20039;-75
2021/09/11 02:04:17;;;;;;;6.32;4.50;;;;;;;;;;4956290;29;20046;-75
2021/09/11 02:06:43;;;;;;;4.20;3.67;;;;;;;;;;4955508;28;20047;-75
2021/09/11 02:09:08;;;;;;;5.82;3.90;;;;;;;;;;4956025;28;20065;-75
2021/09/11 02:11:34;;;;;;;5.55;4.20;;;;;;;;;;4956044;28;20116;-75
2021/09/11 02:13:59;;;;;;;4.95;3.97;;;;;;;;;;4955232;28;20039;-75
2021/09/11 02:16:25;;;;;;;5.53;4.18;;;;;;;;;;4954927;29;20119;-75
2021/09/11 02:18:50;;;;;;;5.45;4.15;;;;;;;;;;4955186;28;20456;-75
2021/09/11 02:21:15;;;;;;;13.57;5.03;;;;;;;;;;4956053;29;20050;-75
2021/09/11 02:23:41;;;;;;;13.07;4.90;;;;;;;;;;4955871;28;20042;-75
2021/09/11 02:26:06;;;;;;;6.55;5.20;;;;;;;;;;4955856;29;20047;-75
2021/09/11 02:28:31;;;;;;;6.95;4.82;;;;;;;;;;4954544;28;20034;-75
2021/09/11 02:30:57;;;;;;;9.73;4.85;;;;;;;;;;4955315;28;20045;-75
2021/09/11 02:33:22;;;;;;;15.18;4.75;;;;;;;;;;4955646;28;20134;-75
2021/09/11 02:35:48;;;;;;;7.13;4.90;;;;;;;;;;4955606;28;20035;-75
2021/09/11 02:38:14;;;;;;;18.50;4.40;;;;;;;;;;4954135;28;20386;-75
2021/09/11 02:40:40;;;;;;;8.10;4.70;;;;;;;;;;4955684;28;20133;-75
2021/09/11 02:43:05;;;;;;;7.38;5.03;;;;;;;;;;4955731;28;20082;-75
2021/09/11 02:45:30;;;;;;;11.90;5.10;;;;;;;;;;4955282;28;20134;-75
2021/09/11 02:47:56;;;;;;;7.80;4.80;;;;;;;;;;4955485;29;20043;-75
2021/09/11 02:50:22;;;;;;;13.80;4.30;;;;;;;;;;4955461;28;20043;-75
2021/09/11 02:52:48;;;;;;;8.00;4.28;;;;;;;;;;4954794;28;20039;-75
2021/09/11 02:55:13;;;;;;;6.57;3.80;;;;;;;;;;4954383;29;20045;-75
2021/09/11 02:57:38;;;;;;;6.18;4.15;;;;;;;;;;4954624;28;20106;-75
2021/09/11 03:00:04;;;;;;;7.43;3.95;;;;;;;;;;4955301;28;20134;-75
2021/09/11 03:02:30;;;;;;;6.13;3.47;;;;;;;;;;4955250;28;20039;-75
2021/09/11 03:04:55;;;;;;;5.50;4.00;;;;;;;;;;4955011;29;20039;-75
2021/09/11 03:07:21;;;;;;;6.05;3.97;;;;;;;;;;4955019;28;20066;-75
2021/09/11 03:09:46;;;;;;;10.68;4.20;;;;;;;;;;4954022;28;20047;-75
2021/09/11 03:12:11;;;;;;;6.93;3.83;;;;;;;;;;4954285;28;20047;-75
2021/09/11 03:14:37;;;;;;;7.43;4.60;;;;;;;;;;4955255;29;20047;-75
2021/09/11 03:17:02;;;;;;;10.80;3.97;;;;;;;;;;4954396;28;20055;-75
2021/09/11 03:19:28;;;;;;;21.20;4.90;;;;;;;;;;4955004;28;20505;-75
2021/09/11 03:21:53;;;;;;;11.10;4.43;;;;;;;;;;4955004;28;20035;-75
2021/09/11 03:24:19;;;;;;;19.80;4.82;;;;;;;;;;4953248;28;20038;-75
2021/09/11 03:26:44;;;;;;;7.63;5.50;;;;;;;;;;4954947;28;20487;-75
2021/09/11 03:29:10;;;;;;;7.43;4.28;;;;;;;;;;4955009;28;20043;-75
2021/09/11 03:31:35;;;;;;;9.32;5.32;;;;;;;;;;4954955;28;20190;-75
2021/09/11 03:34:01;;;;;;;13.48;5.22;;;;;;;;;;4955008;28;20045;-75
2021/09/11 03:36:27;;;;;;;8.40;5.30;;;;;;;;;;4954815;28;20035;-75
2021/09/11 03:38:52;;;;;;;16.08;5.78;;;;;;;;;;4953926;28;20122;-75
2021/09/11 03:41:17;;;;;;;9.13;4.75;;;;;;;;;;4954888;29;20138;-75
2021/09/11 03:43:43;;;;;;;9.55;5.40;;;;;;;;;;4954878;28;20071;-75
2021/09/11 03:46:08;;;;;;;7.68;5.18;;;;;;;;;;4952924;28;20078;-75
2021/09/11 03:48:34;;;;;;;5.75;4.85;;;;;;;;;;4952796;28;20126;-75
2021/09/11 03:50:59;;;;;;;5.85;4.63;;;;;;;;;;4954432;28;20082;-75
2021/09/11 03:53:25;;;;;;;8.80;5.10;;;;;;;;;;4972522;28;20096;-75
2021/09/11 03:55:50;;;;;;;5.55;4.68;;;;;;;;;;4973774;28;20030;-75
2021/09/11 03:58:16;;;;;;;8.93;5.20;;;;;;;;;;4974115;28;20405;-75
2021/09/11 04:00:41;;;;;;;13.52;5.70;;;;;;;;;;4973468;28;20138;-75
2021/09/11 04:03:06;;;;;;;9.38;5.88;;;;;;;;;;4972544;28;20074;-75
2021/09/11 04:05:32;;;;;;;9.02;5.18;;;;;;;;;;4973767;28;20069;-75
2021/09/11 04:07:57;;;;;;;6.85;5.35;;;;;;;;;;4974024;28;20391;-75
2021/09/11 04:10:23;;;;;;;14.60;4.85;;;;;;;;;;4973815;28;20043;-75
2021/09/11 04:12:48;;;;;;;10.45;4.70;;;;;;;;;;4970570;28;20054;-75
2021/09/11 04:15:14;;;;;;;8.30;5.40;;;;;;;;;;4953284;29;20106;-75
2021/09/11 04:17:39;;;;;;;8.57;5.45;;;;;;;;;;4954869;29;20500;-75
2021/09/11 04:20:05;;;;;;;6.97;4.97;;;;;;;;;;4954396;28;20031;-75
2021/09/11 04:22:30;;;;;;;9.05;4.65;;;;;;;;;;4954625;28;20440;-75
2021/09/11 04:24:56;;;;;;;5.65;4.35;;;;;;;;;;4954519;28;20043;-76
2021/09/11 04:27:21;;;;;;;5.10;4.22;;;;;;;;;;4953922;28;20505;-76
2021/09/11 04:29:46;;;;;;;8.60;4.30;;;;;;;;;;4954305;28;20035;-75
2021/09/11 04:32:12;;;;;;;4.85;3.80;;;;;;;;;;4954325;29;20047;-75
2021/09/11 04:34:37;;;;;;;3.85;3.38;;;;;;;;;;4954457;28;20070;-75
2021/09/11 04:37:03;;;;;;;8.18;4.18;;;;;;;;;;4951826;28;20050;-75
2021/09/11 04:39:28;;;;;;;8.65;5.05;;;;;;;;;;4957749;28;20046;-75
2021/09/11 04:41:54;;;;;;;5.30;4.28;;;;;;;;;;4955668;29;20027;-75
2021/09/11 04:44:19;;;;;;;6.70;4.38;;;;;;;;;;4957888;28;20381;-75
2021/09/11 04:46:45;;;;;;;4.95;4.25;;;;;;;;;;4957528;29;20122;-75
2021/09/11 04:49:10;;;;;;;9.60;5.20;;;;;;;;;;4957881;28;20155;-75
2021/09/11 04:51:35;;;;;;;8.30;4.22;;;;;;;;;;4957454;29;20086;-75
2021/09/11 04:54:01;;;;;;;8.40;4.57;;;;;;;;;;4957574;28;20035;-75
2021/09/11 04:56:26;;;;;;;7.80;4.47;;;;;;;;;;4957655;28;20039;-75
2021/09/11 04:58:51;;;;;;;12.98;4.78;;;;;;;;;;4957159;28;20047;-75
2021/09/11 05:01:17;;;;;;;5.85;4.28;;;;;;;;;;4955573;29;20058;-75
2021/09/11 05:03:42;;;;;;;6.47;4.47;;;;;;;;;;4957503;29;20043;-75
2021/09/11 05:06:08;;;;;;;10.13;4.80;;;;;;;;;;4957041;28;20101;-75
2021/09/11 05:08:33;;;;;;;7.85;4.10;;;;;;;;;;4956967;28;20121;-75
2021/09/11 05:10:58;;;;;;;8.57;4.70;;;;;;;;;;4957358;28;20457;-75
2021/09/11 05:13:24;;;;;;;8.77;4.13;;;;;;;;;;4955463;28;20043;-75
2021/09/11 05:15:49;;;;;;;11.30;4.50;;;;;;;;;;4957078;28;20032;-75
2021/09/11 05:18:15;;;;;;;5.05;4.55;;;;;;;;;;4957066;28;20481;-75
2021/09/11 05:20:40;;;;;;;8.15;4.78;;;;;;;;;;4957015;28;20035;-75
2021/09/11 05:23:05;;;;;;;22.35;5.30;;;;;;;;;;4957065;28;20078;-75
2021/09/11 05:25:31;;;;;;;7.95;5.40;;;;;;;;;;4956952;28;20035;-75
2021/09/11 05:27:56;;;;;;;37.40;5.70;;;;;;;;;;4956786;28;20481;-75
2021/09/11 05:30:22;;;;;;;14.75;5.43;;;;;;;;;;4956440;28;20039;-75
2021/09/11 05:32:47;;;;;;;8.25;5.55;;;;;;;;;;4956853;28;20481;-75
2021/09/11 05:35:12;;;;;;;8.45;4.47;;;;;;;;;;4956585;28;20035;-75
2021/09/11 05:37:39;;;;;;;6.35;4.18;;;;;;;;;;4956070;28;20041;-75
2021/09/11 05:40:05;;;;;;;5.07;3.75;;;;;;;;;;4956749;28;20042;-75
2021/09/11 05:42:31;;;;;;;5.30;4.43;;;;;;;;;;4956036;28;20093;-75
2021/09/11 05:44:59;;;;;;;7.32;5.72;;;;;;;;;;4955461;29;20031;-75
2021/09/11 05:47:25;;;;;;;5.55;4.60;;;;;;;;;;4956564;28;20031;-75
2021/09/11 05:49:51;;;;;;;7.20;4.78;;;;;;;;;;4953067;28;20126;-75
2021/09/11 05:52:16;;;;;;;6.93;4.63;;;;;;;;;;4954853;28;20122;-75
2021/09/11 05:54:42;;;;;;;5.35;4.28;;;;;;;;;;4956416;28;20039;-75
2021/09/11 05:57:07;;;;;;;12.73;5.55;;;;;;;;;;4955794;28;20027;-75
2021/09/11 05:59:33;;;;;;;9.55;4.40;;;;;;;;;;4955114;28;20428;-75
2021/09/11 06:01:58;;;;;;;10.48;4.22;;;;;;;;;;4956121;29;20086;-75
2021/09/11 06:04:23;;;;;;;7.38;4.32;;;;;;;;;;4955213;29;20031;-75
2021/09/11 06:06:49;;;;;;;5.07;4.30;;;;;;;;;;4954904;28;20031;-75
2021/09/11 06:09:14;;;;;;;5.25;4.28;;;;;;;;;;4953859;28;20445;-75
2021/09/11 06:11:40;;;;;;;6.25;4.30;;;;;;;;;;4954914;28;20046;-75
2021/09/11 06:14:05;;;;;;;6.07;3.80;;;;;;;;;;4956007;28;20110;-75
2021/09/11 06:16:31;;;;;;;6.90;4.13;;;;;;;;;;4955896;28;20042;-75
2021/09/11 06:18:57;;;;;;;4.60;3.92;;;;;;;;;;4955282;28;20074;-75
2021/09/11 06:21:23;;;;;;;5.43;4.00;;;;;;;;;;4955115;29;20070;-76
2021/09/11 06:23:48;;;;;;;4.75;3.22;;;;;;;;;;4956703;28;20580;-78
2021/09/11 06:26:13;;;;;;;3.35;2.97;;;;;;;;;;4957269;28;20047;-77
2021/09/11 06:28:39;;;;;;;3.63;3.20;;;;;;;;;;4955645;28;20042;-77
2021/09/11 06:31:04;;;;;;;5.35;3.30;;;;;;;;;;4954636;29;20068;-78
2021/09/11 06:33:29;;;;;;;4.78;3.85;;;;;;;;;;4955064;28;20433;-77
2021/09/11 06:35:55;;;;;;;3.78;3.28;;;;;;;;;;4955114;29;20039;-77
2021/09/11 06:38:20;;;;;;;3.47;3.17;;;;;;;;;;4954235;29;20039;-77
2021/09/11 06:40:45;;;;;;;7.50;3.45;;;;;;;;;;4955523;28;20047;-77
2021/09/11 06:43:11;;;;;;;3.97;3.35;;;;;;;;;;4955472;28;20035;-77
2021/09/11 06:45:36;;;;;;;5.13;3.45;;;;;;;;;;4956014;29;20505;-77
2021/09/11 06:48:03;;;;;;;3.75;3.35;;;;;;;;;;4955490;28;20049;-77
2021/09/11 06:50:28;;;;;;;4.88;3.35;;;;;;;;;;4955832;28;20043;-78
2021/09/11 06:52:54;;;;;;;4.78;3.38;;;;;;;;;;4959437;28;20049;-78
2021/09/11 06:55:20;;;;;;;5.70;3.40;;;;;;;;;;4958557;29;20045;-77
2021/09/11 06:57:45;;;;;;;5.57;3.72;;;;;;;;;;4955739;28;20031;-77
2021/09/11 07:00:11;;;;;;;4.30;3.28;;;;;;;;;;4955141;28;20058;-77
2021/09/11 07:02:37;;;;;;;5.57;3.58;;;;;;;;;;4955341;28;20043;-77
2021/09/11 07:05:02;;;;;;;10.02;3.47;;;;;;;;;;4955561;28;20393;-77
2021/09/11 07:07:31;;;;;;;10.57;3.75;;;;;;;;;;4955541;28;20129;-78
2021/09/11 07:09:56;;;;;;;4.05;3.65;;;;;;;;;;4957686;28;20039;-78
2021/09/11 07:12:23;;;;;;;5.70;3.50;;;;;;;;;;4958004;29;20046;-78
2021/09/11 07:14:48;;;;;;;5.35;3.35;;;;;;;;;;4959717;28;20042;-78
2021/09/11 07:17:14;;;;;;;6.38;3.60;;;;;;;;;;4957893;28;20031;-76
2021/09/11 07:19:39;;;;;;;5.85;3.80;;;;;;;;;;4955412;28;20750;-75
2021/09/11 07:22:05;;;;;;;5.40;3.47;;;;;;;;;;4954289;28;20126;-74
2021/09/11 07:24:31;;;;;;;8.48;3.58;;;;;;;;;;4954746;29;20436;-74
2021/09/11 07:26:56;;;;;;;6.20;2.83;;;;;;;;;;4954766;28;20494;-74
2021/09/11 07:29:22;;;;;;;5.82;3.13;;;;;;;;;;4954250;28;20096;-74
2021/09/11 07:31:47;;;;;;;7.50;3.45;;;;;;;;;;4955026;28;20123;-74
2021/09/11 07:34:12;;;;;;;4.32;3.40;;;;;;;;;;4955325;28;20073;-75
2021/09/11 07:36:38;;;;;;;11.07;3.40;;;;;;;;;;4956506;29;20035;-74
2021/09/11 07:39:04;;;;;;;3.42;2.85;;;;;;;;;;4955373;28;20030;-74
2021/09/11 07:41:29;;;;;;;3.40;3.10;;;;;;;;;;4956773;28;20461;-74
2021/09/11 07:43:55;;;;;;;6.03;3.88;;;;;;;;;;4955487;29;20094;-74
2021/09/11 07:46:20;;;;;;;5.13;3.60;;;;;;;;;;4939570;28;20520;-74
2021/09/11 07:48:46;;;;;;;4.80;3.70;;;;;;;;;;4957875;28;20027;-78
2021/09/11 07:51:11;;;;;;;7.13;4.13;;;;;;;;;;4958677;28;20453;-77
2021/09/11 07:53:37;;;;;;;8.40;4.25;;;;;;;;;;4955136;28;20039;-76
2021/09/11 07:56:02;;;;;;;6.57;4.47;;;;;;;;;;4956184;29;20043;-79
2021/09/11 07:58:28;;;;;;;5.60;3.80;;;;;;;;;;4959352;28;20403;-76
2021/09/11 08:00:56;;;;;;;5.10;3.80;;;;;;;;;;4944518;28;20122;-78
2021/09/11 08:03:22;;;;;;;6.18;3.85;;;;;;;;;;4962618;28;20039;-81
2021/09/11 08:05:47;;;;;;;5.18;3.30;;;;;;;;;;4958705;29;20031;-77
2021/09/11 08:08:13;;;;;;;10.65;4.22;;;;;;;;;;4957849;28;20044;-77
2021/09/11 08:10:38;;;;;;;4.68;3.30;;;;;;;;;;4955778;28;20035;-75
2021/09/11 08:13:04;;;;;;;6.07;3.20;;;;;;;;;;4957915;28;20031;-76
2021/09/11 08:15:29;;;;;;;5.47;2.60;;;;;;;;;;4960424;28;20035;-77
2021/09/11 08:17:55;;;;;;;4.97;3.17;;;;;;;;;;4960361;28;20027;-78
2021/09/11 08:20:21;;;;;;;5.95;2.80;;;;;;;;;;4959666;28;20087;-77
2021/09/11 08:22:47;;;;;;;3.70;2.53;;;;;;;;;;4944993;28;20063;-77
2021/09/11 08:25:12;;;;;;;4.43;2.67;;;;;;;;;;4956907;29;20039;-77
2021/09/11 08:27:38;;;;;;;5.65;2.60;;;;;;;;;;4943324;28;20044;-76
2021/09/11 08:30:05;;;;;;;7.05;2.90;;;;;;;;;;4943999;29;20044;-85
2021/09/11 08:32:31;;;;;;;3.47;3.08;;;;;;;;;;4945966;29;20107;-83
2021/09/11 08:34:56;;;;;;;4.65;2.40;;;;;;;;;;4941944;29;20047;-85
2021/09/11 08:37:21;;;;;;;5.30;3.13;;;;;;;;;;4946785;28;20035;-84
2021/09/11 08:39:47;;;;;;;7.88;4.97;;;;;;;;;;4960506;28;20409;-88
2021/09/11 08:42:13;;;;;;;18.63;13.70;;;;;;;;;;4959862;28;20058;-82
2021/09/11 08:44:39;;;;;;;7.35;5.40;;;;;;;;;;4966694;28;20043;-81
2021/09/11 08:47:07;;;;;;;4.78;2.95;;;;;;;;;;4962779;29;20039;-79
2021/09/11 08:49:33;;;;;;;4.80;3.55;;;;;;;;;;4964936;28;20490;-84
2021/09/11 08:52:01;;;;;;;5.25;3.42;;;;;;;;;;4966080;28;20530;-83
2021/09/11 08:54:27;;;;;;;3.55;2.83;;;;;;;;;;4962406;28;20047;-88
2021/09/11 08:56:53;;;;;;;3.67;3.25;;;;;;;;;;4962333;28;20517;-87
2021/09/11 08:59:19;;;;;;;4.03;2.78;;;;;;;;;;4974100;28;20031;-84
2021/09/11 09:02:06;;;;;;;3.53;2.70;;;;;;;;;;4961272;28;20110;-85
2021/09/11 09:05:04;;;;;;;3.13;2.75;;;;;;;;;;4967172;28;20042;-85
2021/09/11 09:07:43;;;;;;;4.35;3.00;;;;;;;;;;4924785;28;20055;-79
2021/09/11 09:10:14;;;;;;;5.53;3.45;;;;;;;;;;4955396;29;20031;-83
2021/09/11 09:12:42;;;;;;;5.15;2.90;;;;;;;;;;4958792;28;20449;-82
2021/09/11 09:15:11;;;;;;;3.20;2.90;;;;;;;;;;4961531;28;20397;-80
2021/09/11 09:17:46;;;;;;;4.00;2.95;;;;;;;;;;4959683;28;20023;-80
2021/09/11 09:20:25;;;;;;;5.53;3.23;;;;;;;;;;4950529;29;20040;-81
2021/09/11 09:22:59;;;;;;;6.22;2.92;;;;;;;;;;4956778;28;20031;-81
2021/09/11 09:25:32;;;;;;;3.03;2.45;;;;;;;;;;4941631;29;20094;-82
2021/09/11 09:28:02;;;;;;;5.43;2.60;;;;;;;;;;4946419;28;20042;-87
2021/09/11 09:30:45;;;;;;;4.07;3.10;;;;;;;;;;4940831;29;20043;-86
2021/09/11 09:33:20;;;;;;;5.63;2.90;;;;;;;;;;4958410;28;20051;-85
2021/09/11 09:35:46;;;;;;;4.80;3.20;;;;;;;;;;4943313;29;20423;-86
2021/09/11 09:38:12;;;;;;;5.10;3.17;;;;;;;;;;4935065;29;20038;-83
2021/09/11 09:40:44;;;;;;;9.80;3.58;;;;;;;;;;4960061;28;20042;-85
2021/09/11 09:43:12;;;;;;;6.03;5.43;;;;;;;;;;4962465;28;20042;-83
2021/09/11 09:45:39;;;;;;;16.77;11.80;;;;;;;;;;4946475;29;20103;-82
2021/09/11 09:48:09;;;;;;;16.50;11.25;;;;;;;;;;4964322;28;20055;-79
2021/09/11 09:50:37;;;;;;;20.98;15.55;;;;;;;;;;4964077;28;20062;-79
2021/09/11 09:53:03;;;;;;;19.30;15.02;;;;;;;;;;4964230;28;20039;-80
2021/09/11 09:55:28;;;;;;;26.08;17.48;;;;;;;;;;4947964;29;20045;-80
2021/09/11 09:57:54;;;;;;;25.48;17.73;;;;;;;;;;4966778;28;20039;-80
2021/09/11 10:00:20;;;;;;;26.52;19.38;;;;;;;;;;4966676;28;20083;-80
2021/09/11 10:02:45;;;;;;;23.33;18.38;;;;;;;;;;4965270;28;20039;-80
2021/09/11 10:05:17;;;;;;;22.52;19.27;;;;;;;;;;4966954;29;20046;-81
2021/09/11 10:07:58;;;;;;;24.70;20.58;;;;;;;;;;4962547;28;20046;-78
2021/09/11 10:10:32;;;;;;;30.08;22.02;;;;;;;;;;4958838;28;20045;-76
2021/09/11 10:13:26;;;;;;;24.80;20.58;;;;;;;;;;4958737;28;20041;-78
2021/09/11 10:15:56;;;;;;;23.48;19.40;;;;;;;;;;4959177;29;20070;-76
2021/09/11 10:18:30;;;;;;;27.38;20.80;;;;;;;;;;4964075;28;20110;-79
2021/09/11 10:21:11;;;;;;;24.73;20.33;;;;;;;;;;4953958;29;20032;-82
2021/09/11 10:23:37;;;;;;;26.50;20.83;;;;;;;;;;4948173;29;20035;-76
2021/09/11 10:26:02;;;;;;;23.15;18.65;;;;;;;;;;4947474;28;20425;-76
2021/09/11 10:28:28;;;;;;;26.63;19.63;;;;;;;;;;4947734;29;20119;-76
2021/09/11 10:31:08;;;;;;;24.08;20.33;;;;;;;;;;4945075;29;20047;-76
2021/09/11 10:33:43;;;;;;;30.50;21.15;;;;;;;;;;4908061;29;20123;-77
2021/09/11 10:36:11;;;;;;;29.80;20.90;;;;;;;;;;4891491;29;20067;-79
2021/09/11 10:38:44;;;;;;;26.60;20.23;;;;;;;;;;4911215;29;20054;-78
2021/09/11 10:41:11;;;;;;;22.42;19.50;;;;;;;;;;4913984;29;20064;-77
2021/09/11 10:43:38;;;;;;;24.70;19.60;;;;;;;;;;4914877;29;20036;-80
2021/09/11 10:46:08;;;;;;;26.90;20.25;;;;;;;;;;4922006;29;20458;-76
2021/09/11 10:48:39;;;;;;;23.33;19.77;;;;;;;;;;4918048;29;20040;-76
2021/09/11 10:51:13;;;;;;;26.08;19.85;;;;;;;;;;4918063;29;20063;-76
2021/09/11 10:53:39;;;;;;;24.52;18.92;;;;;;;;;;4900996;29;20039;-75
2021/09/11 10:56:24;;;;;;;27.40;20.48;;;;;;;;;;4902350;29;20179;-75
2021/09/11 10:59:14;;;;;;;21.93;18.03;;;;;;;;;;4917841;29;20064;-75
2021/09/11 11:02:12;;;;;;;21.25;16.88;;;;;;;;;;4918941;29;20067;-76
2021/09/11 11:04:46;;;;;;;22.65;17.08;;;;;;;;;;4916625;29;20084;-77
2021/09/11 11:07:11;;;;;;;22.77;15.32;;;;;;;;;;4918425;29;20055;-76
2021/09/11 11:09:44;;;;;;;16.90;14.02;;;;;;;;;;4924689;29;20044;-77
2021/09/11 11:12:11;;;;;;;18.38;14.40;;;;;;;;;;4916761;29;20036;-79
2021/09/11 11:14:45;;;;;;;17.95;13.63;;;;;;;;;;4917888;29;20044;-77
2021/09/11 11:17:11;;;;;;;16.27;13.68;;;;;;;;;;4916548;29;20091;-77
2021/09/11 11:19:41;;;;;;;18.40;13.13;;;;;;;;;;4916641;29;20040;-76
2021/09/11 11:22:10;;;;;;;20.30;15.95;;;;;;;;;;4919740;29;20062;-80
2021/09/11 11:24:39;;;;;;;18.08;14.52;;;;;;;;;;4915736;29;20046;-76
2021/09/11 11:27:11;;;;;;;21.95;16.02;;;;;;;;;;4917505;29;20055;-77
2021/09/11 11:29:37;;;;;;;18.20;14.15;;;;;;;;;;4916457;29;20050;-76
2021/09/11 11:32:04;;;;;;;14.68;12.27;;;;;;;;;;4933615;28;20051;-80
2021/09/11 11:34:30;;;;;;;21.67;13.25;;;;;;;;;;4955105;28;20039;-77
2021/09/11 11:36:57;;;;;;;17.90;13.38;;;;;;;;;;4956449;28;20132;-79
2021/09/11 11:39:27;;;;;;;20.63;15.63;;;;;;;;;;4967855;28;20054;-77
2021/09/11 11:41:56;;;;;;;14.98;12.63;;;;;;;;;;4977755;28;20432;-80
2021/09/11 11:44:23;;;;;;;14.00;11.43;;;;;;;;;;4945497;29;20035;-80
2021/09/11 11:47:00;;;;;;;12.60;9.95;;;;;;;;;;4942581;29;20039;-80
2021/09/11 11:49:33;;;;;;;12.77;9.55;;;;;;;;;;4950855;28;20042;-79
2021/09/11 11:51:59;;;;;;;13.85;10.15;;;;;;;;;;4949976;28;20073;-79
2021/09/11 11:54:25;;;;;;;13.20;9.20;;;;;;;;;;4947320;28;20066;-77
2021/09/11 11:56:51;;;;;;;17.42;10.40;;;;;;;;;;4953223;28;20110;-85
2021/09/11 11:59:24;;;;;;;12.77;8.13;;;;;;;;;;4955034;28;20482;-79
2021/09/11 12:01:49;;;;;;;10.90;8.32;;;;;;;;;;4946045;28;20099;-81
2021/09/11 12:04:16;;;;;;;11.68;7.57;;;;;;;;;;4963996;28;20089;-85
2021/09/11 12:06:50;;;;;;;9.02;6.35;;;;;;;;;;4965853;29;20050;-81
2021/09/11 12:09:17;;;;;;;7.93;6.00;;;;;;;;;;4955398;28;20043;-83
2021/09/11 12:11:43;;;;;;;6.80;5.57;;;;;;;;;;4966931;28;20492;-84
2021/09/11 12:14:09;;;;;;;9.52;5.00;;;;;;;;;;4967084;28;20039;-83
2021/09/11 12:16:35;;;;;;;6.75;4.78;;;;;;;;;;4968405;28;20046;-82
2021/09/11 12:19:14;;;;;;;5.13;4.57;;;;;;;;;;4965879;28;20035;-80
2021/09/11 12:21:40;;;;;;;8.55;5.35;;;;;;;;;;4964838;28;20058;-81
2021/09/11 12:24:17;;;;;;;7.68;5.07;;;;;;;;;;4964691;28;20500;-80
2021/09/11 12:26:42;;;;;;;4.80;4.28;;;;;;;;;;4947088;29;20063;-84
2021/09/11 12:29:09;;;;;;;7.75;4.68;;;;;;;;;;4944477;29;20035;-80
2021/09/11 12:31:39;;;;;;;7.72;4.60;;;;;;;;;;4960927;28;20066;-79
2021/09/11 12:34:18;;;;;;;7.53;4.65;;;;;;;;;;4962621;28;20090;-77
2021/09/11 12:36:47;;;;;;;6.55;4.85;;;;;;;;;;4961918;28;20035;-78
2021/09/11 12:39:15;;;;;;;5.43;4.38;;;;;;;;;;4956862;28;20043;-77
2021/09/11 12:41:46;;;;;;;5.80;4.10;;;;;;;;;;4949278;28;20544;-77
2021/09/11 12:44:12;;;;;;;5.70;3.97;;;;;;;;;;4955724;28;20448;-77
2021/09/11 12:46:51;;;;;;;6.05;4.13;;;;;;;;;;4956584;28;20075;-77
2021/09/11 12:49:18;;;;;;;8.85;4.53;;;;;;;;;;4958627;28;20035;-79
2021/09/11 12:51:46;;;;;;;7.10;4.38;;;;;;;;;;4960001;29;20039;-78
2021/09/11 12:54:11;;;;;;;6.65;5.32;;;;;;;;;;4960286;28;20042;-77
2021/09/11 12:56:37;;;;;;;7.57;6.13;;;;;;;;;;4960076;29;20166;-78
2021/09/11 12:59:03;;;;;;;6.93;5.22;;;;;;;;;;4958668;28;20035;-78
2021/09/11 13:01:33;;;;;;;11.82;6.40;;;;;;;;;;4960098;28;20408;-78
2021/09/11 13:03:58;;;;;;;11.15;5.80;;;;;;;;;;4958560;28;20130;-78
2021/09/11 13:06:24;;;;;;;10.25;5.50;;;;;;;;;;4941728;29;20075;-79
2021/09/11 13:08:49;;;;;;;9.18;7.55;;;;;;;;;;4943298;29;20054;-78
2021/09/11 13:11:16;;;;;;;7.28;4.43;;;;;;;;;;4950150;28;20043;-78
2021/09/11 13:13:42;;;;;;;7.78;5.60;;;;;;;;;;4950189;28;20043;-78
2021/09/11 13:16:09;;;;;;;8.23;4.85;;;;;;;;;;4949537;28;20039;-78
2021/09/11 13:18:37;;;;;;;7.40;3.80;;;;;;;;;;4947377;29;20056;-78
2021/09/11 13:21:08;;;;;;;5.70;3.55;;;;;;;;;;4950506;28;20035;-78
2021/09/11 13:23:34;;;;;;;5.53;3.63;;;;;;;;;;4949065;29;20099;-78
2021/09/11 13:26:00;;;;;;;4.88;4.15;;;;;;;;;;4945093;28;20036;-79
2021/09/11 13:28:25;;;;;;;6.75;3.75;;;;;;;;;;4944032;28;20043;-78
2021/09/11 13:30:51;;;;;;;7.68;3.53;;;;;;;;;;4976511;28;20035;-77
2021/09/11 13:33:16;;;;;;;3.63;3.00;;;;;;;;;;4975863;28;20050;-77
2021/09/11 13:35:42;;;;;;;5.13;3.28;;;;;;;;;;4961009;28;20047;-77
2021/09/11 13:38:07;;;;;;;4.50;3.08;;;;;;;;;;4955886;29;20066;-77
2021/09/11 13:40:32;;;;;;;5.80;2.78;;;;;;;;;;4955558;28;20059;-77
2021/09/11 13:42:58;;;;;;;3.92;2.25;;;;;;;;;;4954290;28;20039;-77
2021/09/11 13:45:23;;;;;;;4.93;2.70;;;;;;;;;;4956162;28;20035;-77
2021/09/11 13:47:50;;;;;;;2.95;2.60;;;;;;;;;;4956611;29;20102;-77
2021/09/11 13:50:15;;;;;;;3.88;2.72;;;;;;;;;;4955302;28;20037;-77
2021/09/11 13:52:40;;;;;;;5.30;2.47;;;;;;;;;;4956331;28;20039;-77
2021/09/11 13:55:06;;;;;;;3.47;2.65;;;;;;;;;;4954767;28;20054;-77
2021/09/11 13:57:32;;;;;;;7.70;2.65;;;;;;;;;;4954977;29;20455;-77
2021/09/11 13:59:57;;;;;;;3.85;2.38;;;;;;;;;;4956201;28;20046;-77
2021/09/11 14:02:22;;;;;;;5.18;2.50;;;;;;;;;;4956712;28;20481;-77
2021/09/11 14:04:48;;;;;;;3.58;2.03;;;;;;;;;;4938309;29;20034;-77
2021/09/11 14:07:13;;;;;;;3.53;1.60;;;;;;;;;;4956317;28;20122;-77
2021/09/11 14:09:39;;;;;;;3.40;1.73;;;;;;;;;;4954975;28;20062;-77
2021/09/11 14:12:05;;;;;;;4.70;1.52;;;;;;;;;;4953921;29;20110;-77
2021/09/11 14:14:31;;;;;;;6.30;1.80;;;;;;;;;;4945128;29;20028;-77
2021/09/11 14:16:56;;;;;;;3.00;1.88;;;;;;;;;;4954378;28;20159;-77
2021/09/11 14:19:22;;;;;;;2.65;1.77;;;;;;;;;;4955912;28;20047;-77
2021/09/11 14:21:47;;;;;;;5.63;1.80;;;;;;;;;;4955593;28;20070;-77
2021/09/11 14:24:13;;;;;;;2.83;1.50;;;;;;;;;;4955997;28;20129;-77
2021/09/11 14:26:39;;;;;;;3.78;1.52;;;;;;;;;;4955999;28;20038;-77
2021/09/11 14:29:04;;;;;;;9.57;1.80;;;;;;;;;;4956263;28;20509;-77
2021/09/11 14:31:30;;;;;;;2.38;1.83;;;;;;;;;;4955062;28;20409;-77
2021/09/11 14:33:56;;;;;;;3.83;1.48;;;;;;;;;;4955727;28;20039;-77
2021/09/11 14:36:21;;;;;;;4.53;1.60;;;;;;;;;;4954223;28;20519;-77
2021/09/11 14:38:47;;;;;;;8.85;1.55;;;;;;;;;;4954523;28;20454;-77